createdAt,value
2018-08-30T00:01:44.256Z,53.75
2018-08-30T00:04:08.962Z,53.78
2018-08-30T00:06:34.946Z,53.76
2018-08-30T00:09:00.928Z,53.73
2018-08-30T00:11:26.904Z,53.72
2018-08-30T00:13:52.881Z,53.72
2018-08-30T00:16:18.856Z,53.70
2018-08-30T00:18:44.840Z,53.69
2018-08-30T00:21:10.821Z,53.70
2018-08-30T00:23:36.839Z,53.67
2018-08-30T00:26:02.825Z,53.66
2018-08-30T00:28:28.808Z,53.66
2018-08-30T00:30:54.789Z,53.65
2018-08-30T00:33:20.761Z,53.64
2018-08-30T00:35:46.778Z,53.66
2018-08-30T00:38:12.760Z,53.64
2018-08-30T00:40:38.751Z,53.64
2018-08-30T00:43:04.740Z,53.63
2018-08-30T00:45:30.723Z,53.63
2018-08-30T00:47:56.696Z,53.61
2018-08-30T00:50:22.684Z,53.61
2018-08-30T00:52:48.663Z,53.59
2018-08-30T00:55:14.671Z,53.61
2018-08-30T00:57:40.670Z,53.60
2018-08-30T01:00:06.646Z,53.57
2018-08-30T01:02:32.632Z,53.57
2018-08-30T01:04:58.611Z,53.58
2018-08-30T01:07:24.640Z,53.58
2018-08-30T01:09:50.620Z,53.55
2018-08-30T01:12:16.608Z,53.56
2018-08-30T01:14:42.633Z,53.55
2018-08-30T01:17:08.612Z,53.53
2018-08-30T01:19:34.630Z,53.51
2018-08-30T01:22:00.609Z,53.50
2018-08-30T01:24:26.595Z,53.49
2018-08-30T01:26:52.575Z,53.51
2018-08-30T01:29:18.556Z,53.51
2018-08-30T01:31:44.538Z,53.49
2018-08-30T01:34:10.522Z,53.49
2018-08-30T01:36:36.522Z,53.49
2018-08-30T01:39:02.508Z,53.48
2018-08-30T01:41:28.482Z,53.48
2018-08-30T01:43:54.464Z,53.45
2018-08-30T01:46:20.441Z,53.47
2018-08-30T01:48:46.425Z,53.45
2018-08-30T01:51:12.405Z,53.44
2018-08-30T01:53:38.395Z,53.43
2018-08-30T01:56:04.424Z,53.42
2018-08-30T01:58:30.408Z,53.45
2018-08-30T02:00:56.388Z,53.44
2018-08-30T02:03:22.392Z,53.42
2018-08-30T02:05:48.399Z,53.41
2018-08-30T02:08:14.381Z,53.42
2018-08-30T02:10:40.358Z,53.39
2018-08-30T02:13:06.344Z,53.42
2018-08-30T02:15:32.319Z,53.39
2018-08-30T02:17:58.303Z,53.39
2018-08-30T02:20:24.313Z,53.38
2018-08-30T02:22:50.294Z,53.38
2018-08-30T02:25:16.272Z,53.37
2018-08-30T02:27:42.250Z,53.33
2018-08-30T02:30:08.263Z,53.34
2018-08-30T02:32:34.253Z,53.36
2018-08-30T02:35:00.225Z,53.33
2018-08-30T02:37:26.210Z,53.33
2018-08-30T02:39:52.194Z,53.34
2018-08-30T02:42:18.168Z,53.32
2018-08-30T02:44:44.196Z,53.37
2018-08-30T02:47:10.169Z,53.33
2018-08-30T02:49:36.137Z,53.31
2018-08-30T02:52:02.123Z,53.31
2018-08-30T02:54:28.154Z,53.31
2018-08-30T02:56:54.129Z,53.31
2018-08-30T02:59:20.102Z,53.32
2018-08-30T03:01:46.094Z,53.29
2018-08-30T03:04:12.080Z,53.28
2018-08-30T03:06:38.063Z,53.31
2018-08-30T03:09:04.051Z,53.31
2018-08-30T03:11:30.041Z,53.30
2018-08-30T03:13:56.025Z,53.30
2018-08-30T03:16:22.001Z,53.28
2018-08-30T03:18:47.985Z,53.28
2018-08-30T03:21:13.978Z,53.29
2018-08-30T03:23:39.974Z,53.26
2018-08-30T03:26:06.030Z,53.27
2018-08-30T03:28:32.010Z,53.26
2018-08-30T03:30:58.011Z,53.26
2018-08-30T03:33:23.975Z,53.25
2018-08-30T03:35:49.954Z,53.23
2018-08-30T03:38:15.931Z,53.26
2018-08-30T03:40:41.935Z,53.25
2018-08-30T03:43:07.902Z,53.22
2018-08-30T03:45:33.889Z,53.23
2018-08-30T03:47:59.874Z,53.25
2018-08-30T03:50:25.866Z,53.26
2018-08-30T03:52:51.843Z,53.21
2018-08-30T03:55:17.869Z,53.24
2018-08-30T03:57:43.809Z,53.23
2018-08-30T04:00:09.811Z,53.23
2018-08-30T04:02:35.878Z,53.23
2018-08-30T04:05:01.869Z,53.23
2018-08-30T04:07:27.848Z,53.21
2018-08-30T04:09:53.830Z,53.21
2018-08-30T04:12:19.801Z,53.18
2018-08-30T04:14:45.815Z,53.22
2018-08-30T04:17:11.762Z,53.18
2018-08-30T04:19:37.766Z,53.17
2018-08-30T04:22:03.975Z,53.20
2018-08-30T04:24:29.870Z,53.19
2018-08-30T04:26:55.897Z,53.18
2018-08-30T04:29:21.895Z,53.18
2018-08-30T04:31:47.874Z,53.18
2018-08-30T04:34:13.856Z,53.19
2018-08-30T04:36:39.870Z,53.16
2018-08-30T04:39:05.930Z,53.18
2018-08-30T04:41:31.914Z,53.15
2018-08-30T04:43:57.895Z,53.16
2018-08-30T04:46:23.949Z,53.19
2018-08-30T04:48:49.932Z,53.15
2018-08-30T04:51:15.921Z,53.20
2018-08-30T04:53:41.907Z,53.28
2018-08-30T04:56:07.887Z,53.48
2018-08-30T04:58:33.909Z,53.72
2018-08-30T05:00:59.925Z,53.87
2018-08-30T05:03:25.906Z,53.94
2018-08-30T05:05:51.880Z,54.01
2018-08-30T05:08:17.864Z,54.07
2018-08-30T05:10:43.851Z,54.16
2018-08-30T05:13:09.836Z,53.97
2018-08-30T05:15:35.824Z,53.98
2018-08-30T05:18:01.805Z,54.12
2018-08-30T05:20:27.797Z,54.13
2018-08-30T05:22:53.784Z,54.06
2018-08-30T05:25:19.766Z,54.09
2018-08-30T05:27:45.838Z,53.99
2018-08-30T05:30:11.854Z,54.04
2018-08-30T05:32:37.828Z,54.02
2018-08-30T05:35:03.914Z,54.04
2018-08-30T05:37:29.914Z,53.97
2018-08-30T05:39:55.898Z,54.00
2018-08-30T05:42:21.878Z,54.16
2018-08-30T05:44:47.970Z,54.15
2018-08-30T05:47:13.926Z,54.17
2018-08-30T05:49:39.912Z,54.16
2018-08-30T05:52:05.892Z,54.11
2018-08-30T05:54:31.942Z,54.10
2018-08-30T05:56:57.984Z,54.43
2018-08-30T05:59:23.918Z,54.45
2018-08-30T06:01:49.914Z,54.55
2018-08-30T06:04:15.905Z,54.90
2018-08-30T06:06:41.892Z,55.00
2018-08-30T06:09:07.931Z,55.12
2018-08-30T06:11:33.901Z,55.21
2018-08-30T06:13:59.920Z,55.44
2018-08-30T06:16:25.902Z,55.33
2018-08-30T06:18:51.947Z,55.26
2018-08-30T06:21:17.904Z,55.26
2018-08-30T06:23:43.886Z,55.16
2018-08-30T06:26:09.864Z,55.01
2018-08-30T06:28:35.836Z,55.08
2018-08-30T06:31:01.828Z,55.08
2018-08-30T06:33:27.807Z,55.09
2018-08-30T06:35:53.786Z,55.08
2018-08-30T06:38:19.772Z,54.85
2018-08-30T06:40:45.781Z,55.03
2018-08-30T06:43:11.755Z,54.83
2018-08-30T06:45:37.749Z,54.90
2018-08-30T06:48:03.759Z,55.04
2018-08-30T06:50:30.028Z,54.92
2018-08-30T06:52:55.969Z,54.96
2018-08-30T06:55:21.991Z,54.90
2018-08-30T06:57:47.938Z,54.92
2018-08-30T07:00:13.968Z,54.83
2018-08-30T07:02:39.963Z,54.85
2018-08-30T07:05:05.969Z,54.68
2018-08-30T07:07:31.999Z,54.74
2018-08-30T07:09:57.980Z,54.72
2018-08-30T07:12:23.960Z,54.76
2018-08-30T07:14:50.016Z,54.59
2018-08-30T07:17:15.942Z,54.54
2018-08-30T07:19:41.932Z,54.07
2018-08-30T07:22:07.965Z,54.00
2018-08-30T07:24:33.946Z,53.92
2018-08-30T07:26:59.929Z,53.59
2018-08-30T07:29:25.952Z,54.39
2018-08-30T07:31:51.926Z,54.28
2018-08-30T07:34:18.015Z,54.23
2018-08-30T07:36:43.937Z,54.15
2018-08-30T07:39:09.977Z,53.88
2018-08-30T07:41:35.958Z,54.19
2018-08-30T07:44:01.990Z,54.22
2018-08-30T07:46:27.922Z,54.22
2018-08-30T07:48:53.907Z,54.17
2018-08-30T07:51:19.929Z,54.14
2018-08-30T07:53:45.869Z,54.09
2018-08-30T07:56:11.901Z,54.07
2018-08-30T07:58:37.900Z,54.07
2018-08-30T08:01:03.884Z,54.82
2018-08-30T08:03:29.865Z,54.63
2018-08-30T08:05:55.928Z,54.41
2018-08-30T08:08:21.864Z,54.41
2018-08-30T08:10:47.853Z,54.35
2018-08-30T08:13:13.841Z,54.26
2018-08-30T08:15:39.838Z,54.20
2018-08-30T08:18:05.815Z,54.18
2018-08-30T08:20:31.840Z,54.07
2018-08-30T08:22:57.864Z,53.97
2018-08-30T08:25:23.905Z,53.95
2018-08-30T08:27:49.831Z,53.89
2018-08-30T08:30:15.821Z,54.28
2018-08-30T08:32:41.871Z,54.38
2018-08-30T08:35:07.819Z,54.52
2018-08-30T08:37:33.801Z,54.38
2018-08-30T08:39:59.808Z,54.31
2018-08-30T08:42:25.884Z,54.33
2018-08-30T08:44:51.880Z,54.35
2018-08-30T08:47:17.924Z,54.25
2018-08-30T08:49:43.897Z,54.17
2018-08-30T08:52:09.891Z,54.15
2018-08-30T08:54:35.890Z,54.17
2018-08-30T08:57:01.872Z,54.12
2018-08-30T08:59:27.865Z,54.04
2018-08-30T09:01:53.856Z,54.01
2018-08-30T09:04:19.878Z,53.99
2018-08-30T09:06:45.993Z,54.06
2018-08-30T09:09:11.975Z,54.11
2018-08-30T09:11:37.968Z,54.10
2018-08-30T09:14:03.954Z,54.11
2018-08-30T09:16:30.292Z,54.12
2018-08-30T09:18:56.261Z,54.15
2018-08-30T09:21:22.245Z,54.10
2018-08-30T09:23:48.943Z,54.14
2018-08-30T09:26:15.046Z,54.11
2018-08-30T09:28:41.696Z,54.18
2018-08-30T09:31:21.593Z,54.13
2018-08-30T09:33:47.637Z,54.16
2018-08-30T09:36:13.624Z,54.16
2018-08-30T09:38:39.596Z,54.10
2018-08-30T09:41:05.572Z,54.12
2018-08-30T09:43:31.566Z,54.21
2018-08-30T09:45:58.033Z,54.19
2018-08-30T09:48:24.045Z,54.15
2018-08-30T09:50:50.120Z,54.27
2018-08-30T09:53:16.121Z,54.20
2018-08-30T09:55:42.167Z,54.13
2018-08-30T09:58:08.149Z,54.11
2018-08-30T10:00:34.145Z,54.07
2018-08-30T10:03:00.097Z,54.04
2018-08-30T10:05:26.077Z,53.94
2018-08-30T10:07:52.060Z,54.02
2018-08-30T10:10:18.166Z,53.98
2018-08-30T10:12:44.166Z,54.05
2018-08-30T10:15:10.135Z,54.05
2018-08-30T10:17:36.124Z,54.04
2018-08-30T10:20:02.105Z,53.66
2018-08-30T10:22:28.084Z,53.97
2018-08-30T10:24:54.069Z,53.96
2018-08-30T10:27:20.058Z,53.95
2018-08-30T10:29:46.072Z,53.81
2018-08-30T10:32:12.061Z,53.85
2018-08-30T10:34:38.099Z,53.87
2018-08-30T10:37:04.092Z,53.84
2018-08-30T10:39:30.108Z,53.79
2018-08-30T10:41:56.062Z,53.82
2018-08-30T10:44:22.099Z,53.79
2018-08-30T10:46:48.102Z,53.81
2018-08-30T10:49:14.144Z,53.79
2018-08-30T10:51:40.087Z,53.82
2018-08-30T10:54:06.077Z,53.83
2018-08-30T10:56:32.074Z,53.82
2018-08-30T10:58:58.058Z,53.79
2018-08-30T11:01:24.048Z,53.81
2018-08-30T11:03:50.057Z,53.80
2018-08-30T11:06:16.032Z,53.81
2018-08-30T11:08:42.016Z,53.83
2018-08-30T11:11:07.992Z,53.75
2018-08-30T11:13:34.050Z,53.77
2018-08-30T11:15:59.965Z,53.78
2018-08-30T11:18:25.971Z,53.74
2018-08-30T11:20:51.963Z,53.65
2018-08-30T11:23:17.956Z,53.66
2018-08-30T11:25:43.950Z,53.53
2018-08-30T11:28:09.935Z,53.46
2018-08-30T11:30:35.981Z,53.41
2018-08-30T11:33:01.912Z,53.42
2018-08-30T11:35:27.900Z,53.38
2018-08-30T11:37:53.882Z,53.19
2018-08-30T11:40:19.861Z,52.92
2018-08-30T11:42:45.895Z,52.88
2018-08-30T11:45:11.906Z,52.63
2018-08-30T11:47:37.897Z,52.55
2018-08-30T11:50:03.901Z,52.78
2018-08-30T11:52:29.878Z,52.95
2018-08-30T11:54:55.885Z,53.10
2018-08-30T11:57:21.894Z,52.98
2018-08-30T11:59:47.886Z,52.91
2018-08-30T12:02:13.903Z,52.81
2018-08-30T12:04:39.944Z,52.86
2018-08-30T12:07:05.892Z,52.74
2018-08-30T12:09:31.880Z,52.74
2018-08-30T12:11:57.857Z,52.29
2018-08-30T12:14:23.837Z,52.16
2018-08-30T12:16:49.849Z,52.30
2018-08-30T12:19:15.849Z,52.41
2018-08-30T12:21:41.844Z,52.50
2018-08-30T12:24:07.889Z,52.43
2018-08-30T12:26:33.886Z,52.42
2018-08-30T12:28:59.961Z,52.60
2018-08-30T12:31:25.959Z,52.67
2018-08-30T12:33:51.958Z,52.80
2018-08-30T12:36:17.921Z,52.86
2018-08-30T12:38:43.984Z,52.86
2018-08-30T12:41:09.957Z,52.92
2018-08-30T12:43:35.971Z,52.78
2018-08-30T12:46:01.928Z,52.59
2018-08-30T12:48:27.945Z,52.66
2018-08-30T12:50:53.896Z,52.84
2018-08-30T12:53:19.980Z,52.82
2018-08-30T12:55:45.993Z,52.86
2018-08-30T12:58:12.196Z,52.89
2018-08-30T13:00:38.130Z,52.93
2018-08-30T13:03:04.218Z,52.87
2018-08-30T13:05:30.382Z,52.40
2018-08-30T13:07:56.153Z,52.70
2018-08-30T13:10:22.172Z,52.71
2018-08-30T13:12:48.127Z,52.65
2018-08-30T13:15:14.163Z,52.69
2018-08-30T13:17:40.059Z,52.72
2018-08-30T13:20:06.111Z,52.96
2018-08-30T13:22:32.178Z,52.41
2018-08-30T13:24:58.374Z,48.28
2018-08-30T13:27:24.080Z,48.38
2018-08-30T13:29:50.298Z,49.89
2018-08-30T13:32:16.251Z,50.49
2018-08-30T13:34:42.298Z,51.00
2018-08-30T13:37:08.245Z,51.52
2018-08-30T13:39:34.336Z,51.73
2018-08-30T13:42:00.277Z,51.60
2018-08-30T13:44:26.241Z,51.56
2018-08-30T13:46:52.253Z,51.63
2018-08-30T13:49:18.095Z,51.58
2018-08-30T13:51:44.323Z,51.61
2018-08-30T13:54:10.302Z,51.71
2018-08-30T13:56:36.402Z,51.75
2018-08-30T13:59:02.573Z,51.75
2018-08-30T14:01:28.527Z,51.67
2018-08-30T14:03:54.086Z,51.66
2018-08-30T14:06:20.190Z,51.82
2018-08-30T14:08:46.154Z,52.13
2018-08-30T14:11:12.112Z,52.25
2018-08-30T14:13:38.158Z,52.29
2018-08-30T14:16:03.737Z,52.39
2018-08-30T14:18:29.762Z,52.52
2018-08-30T14:20:55.754Z,52.69
2018-08-30T14:23:21.747Z,52.70
2018-08-30T14:25:47.925Z,52.40
2018-08-30T14:28:13.737Z,52.31
2018-08-30T14:30:39.748Z,52.36
2018-08-30T14:33:05.833Z,52.37
2018-08-30T14:35:31.740Z,52.38
2018-08-30T14:37:57.733Z,52.06
2018-08-30T14:40:23.788Z,52.48
2018-08-30T14:42:49.762Z,52.49
2018-08-30T14:45:15.710Z,52.62
2018-08-30T14:47:41.895Z,52.63
2018-08-30T14:50:07.668Z,52.67
2018-08-30T14:52:33.669Z,52.62
2018-08-30T14:54:59.681Z,52.85
2018-08-30T14:57:25.658Z,52.89
2018-08-30T14:59:51.657Z,52.82
2018-08-30T15:02:17.640Z,52.66
2018-08-30T15:04:43.700Z,52.70
2018-08-30T15:07:09.677Z,52.63
2018-08-30T15:09:35.679Z,52.45
2018-08-30T15:12:02.030Z,52.57
2018-08-30T15:14:28.070Z,52.59
2018-08-30T15:16:53.993Z,52.68
2018-08-30T15:19:20.005Z,52.64
2018-08-30T15:21:45.965Z,52.66
2018-08-30T15:24:12.007Z,52.69
2018-08-30T15:26:38.101Z,52.69
2018-08-30T15:29:04.057Z,52.65
2018-08-30T15:31:30.429Z,52.65
2018-08-30T15:33:56.510Z,52.69
2018-08-30T15:36:22.442Z,52.67
2018-08-30T15:38:48.474Z,52.66
2018-08-30T15:41:14.551Z,52.77
2018-08-30T15:43:40.477Z,52.76
2018-08-30T15:46:06.480Z,52.52
2018-08-30T15:48:32.487Z,52.31
2018-08-30T15:50:58.471Z,52.20
2018-08-30T15:53:24.563Z,52.22
2018-08-30T15:55:50.518Z,52.17
2018-08-30T15:58:16.522Z,52.33
2018-08-30T16:00:42.609Z,52.50
2018-08-30T16:03:08.516Z,52.53
2018-08-30T16:05:34.550Z,52.58
2018-08-30T16:08:00.531Z,52.63
2018-08-30T16:10:26.579Z,52.67
2018-08-30T16:12:52.717Z,52.66
2018-08-30T16:15:18.573Z,52.62
2018-08-30T16:17:44.565Z,52.70
2018-08-30T16:20:10.571Z,52.62
2018-08-30T16:22:36.569Z,52.41
2018-08-30T16:25:02.553Z,52.75
2018-08-30T16:27:28.561Z,52.69
2018-08-30T16:29:54.585Z,52.82
2018-08-30T16:32:20.543Z,52.83
2018-08-30T16:34:46.554Z,52.91
2018-08-30T16:37:12.573Z,53.00
2018-08-30T16:39:38.641Z,53.07
2018-08-30T16:42:04.621Z,53.18
2018-08-30T16:44:30.597Z,53.14
2018-08-30T16:46:56.574Z,53.34
2018-08-30T16:49:22.676Z,53.48
2018-08-30T16:51:48.666Z,53.50
2018-08-30T16:54:14.692Z,53.49
2018-08-30T16:56:40.668Z,53.61
2018-08-30T16:59:06.723Z,53.62
2018-08-30T17:01:32.645Z,53.69
2018-08-30T17:03:58.639Z,53.75
2018-08-30T17:06:24.645Z,53.65
2018-08-30T17:08:50.769Z,53.74
2018-08-30T17:11:16.674Z,53.55
2018-08-30T17:13:42.690Z,53.39
2018-08-30T17:16:08.652Z,53.46
2018-08-30T17:18:34.631Z,53.27
2018-08-30T17:21:00.638Z,53.39
2018-08-30T17:23:26.608Z,53.38
2018-08-30T17:25:52.607Z,53.51
2018-08-30T17:28:18.589Z,53.46
2018-08-30T17:30:46.021Z,53.46
2018-08-30T17:33:10.578Z,53.56
2018-08-30T17:35:36.577Z,53.49
2018-08-30T17:38:02.579Z,53.55
2018-08-30T17:40:28.548Z,53.63
2018-08-30T17:42:54.549Z,53.58
2018-08-30T17:45:20.639Z,53.52
2018-08-30T17:47:46.540Z,53.46
2018-08-30T17:50:12.578Z,53.45
2018-08-30T17:52:38.529Z,53.49
2018-08-30T17:55:04.590Z,53.64
2018-08-30T17:57:30.527Z,53.85
2018-08-30T17:59:56.523Z,54.00
2018-08-30T18:02:22.520Z,54.01
2018-08-30T18:04:48.506Z,54.01
2018-08-30T18:07:14.509Z,54.04
2018-08-30T18:09:40.470Z,54.09
2018-08-30T18:12:06.633Z,54.07
2018-08-30T18:14:32.615Z,54.02
2018-08-30T18:16:58.587Z,54.03
2018-08-30T18:19:24.603Z,54.09
2018-08-30T18:21:50.555Z,54.01
2018-08-30T18:24:16.628Z,54.16
2018-08-30T18:26:42.576Z,54.11
2018-08-30T18:29:08.689Z,54.16
2018-08-30T18:31:34.671Z,54.18
2018-08-30T18:34:00.794Z,54.21
2018-08-30T18:36:26.778Z,54.26
2018-08-30T18:38:52.766Z,54.26
2018-08-30T18:41:18.755Z,54.29
2018-08-30T18:43:44.733Z,54.19
2018-08-30T18:46:10.713Z,54.20
2018-08-30T18:48:36.738Z,54.15
2018-08-30T18:51:02.720Z,54.10
2018-08-30T18:53:28.709Z,54.23
2018-08-30T18:55:54.703Z,54.25
2018-08-30T18:58:20.685Z,54.29
2018-08-30T19:00:46.665Z,54.29
2018-08-30T19:03:12.653Z,54.33
2018-08-30T19:05:38.642Z,54.19
2018-08-30T19:08:04.625Z,54.34
2018-08-30T19:10:30.632Z,54.42
2018-08-30T19:12:56.613Z,54.31
2018-08-30T19:15:22.637Z,54.27
2018-08-30T19:17:48.631Z,54.24
2018-08-30T19:20:14.639Z,54.15
2018-08-30T19:22:40.674Z,54.18
2018-08-30T19:25:06.666Z,54.24
2018-08-30T19:27:32.690Z,54.21
2018-08-30T19:29:58.683Z,54.23
2018-08-30T19:32:24.690Z,54.23
2018-08-30T19:34:50.702Z,54.36
2018-08-30T19:37:16.686Z,54.29
2018-08-30T19:39:42.700Z,54.42
2018-08-30T19:42:08.677Z,54.36
2018-08-30T19:44:34.656Z,54.33
2018-08-30T19:47:00.650Z,54.44
2018-08-30T19:49:26.640Z,54.54
2018-08-30T19:51:52.652Z,54.53
2018-08-30T19:54:18.639Z,54.57
2018-08-30T19:56:44.795Z,54.55
2018-08-30T19:59:10.797Z,54.57
2018-08-30T20:01:36.792Z,54.49
2018-08-30T20:04:02.780Z,54.50
2018-08-30T20:06:28.754Z,54.51
2018-08-30T20:08:54.878Z,54.67
2018-08-30T20:11:20.871Z,54.73
2018-08-30T20:13:46.866Z,54.59
2018-08-30T20:16:12.869Z,54.78
2018-08-30T20:18:38.904Z,54.77
2018-08-30T20:21:04.891Z,54.84
2018-08-30T20:23:30.874Z,54.83
2018-08-30T20:25:56.899Z,54.87
2018-08-30T20:28:22.881Z,54.72
2018-08-30T20:30:49.214Z,54.81
2018-08-30T20:33:15.229Z,54.85
2018-08-30T20:35:41.214Z,54.77
2018-08-30T20:38:07.210Z,54.86
2018-08-30T20:40:33.186Z,54.76
2018-08-30T20:42:59.187Z,54.89
2018-08-30T20:45:25.170Z,54.94
2018-08-30T20:47:51.644Z,54.93
2018-08-30T20:50:18.080Z,55.03
2018-08-30T20:52:44.075Z,54.96
2018-08-30T20:55:10.778Z,54.88
2018-08-30T20:57:36.726Z,54.97
2018-08-30T21:00:03.181Z,54.95
2018-08-30T21:02:30.209Z,54.85
2018-08-30T21:04:56.152Z,54.83
2018-08-30T21:07:22.169Z,54.82
2018-08-30T21:09:48.198Z,54.81
2018-08-30T21:12:14.183Z,54.83
2018-08-30T21:14:40.177Z,54.77
2018-08-30T21:17:06.177Z,54.79
2018-08-30T21:19:32.168Z,54.80
2018-08-30T21:21:58.259Z,54.78
2018-08-30T21:24:24.233Z,54.67
2018-08-30T21:26:50.233Z,54.79
2018-08-30T21:29:16.231Z,54.69
2018-08-30T21:31:42.207Z,54.72
2018-08-30T21:34:08.193Z,54.70
2018-08-30T21:36:34.187Z,54.63
2018-08-30T21:39:00.204Z,54.60
2018-08-30T21:41:26.152Z,54.60
2018-08-30T21:43:52.140Z,54.57
2018-08-30T21:46:18.115Z,54.59
2018-08-30T21:48:44.117Z,54.53
2018-08-30T21:51:10.085Z,54.51
2018-08-30T21:53:36.080Z,54.54
2018-08-30T21:56:02.056Z,54.49
2018-08-30T21:58:28.122Z,54.51
2018-08-30T22:00:54.117Z,54.50
2018-08-30T22:03:20.105Z,54.45
2018-08-30T22:05:46.122Z,54.42
2018-08-30T22:08:12.104Z,54.44
2018-08-30T22:10:38.096Z,54.37
2018-08-30T22:13:04.136Z,54.38
2018-08-30T22:15:30.071Z,54.37
2018-08-30T22:17:56.049Z,54.34
2018-08-30T22:20:22.076Z,54.31
2018-08-30T22:22:48.059Z,54.29
2018-08-30T22:25:14.039Z,54.27
2018-08-30T22:27:40.044Z,54.26
2018-08-30T22:30:06.019Z,54.23
2018-08-30T22:32:32.006Z,54.23
2018-08-30T22:34:57.984Z,54.22
2018-08-30T22:37:23.968Z,54.19
2018-08-30T22:39:49.968Z,54.14
2018-08-30T22:42:15.948Z,54.14
2018-08-30T22:44:41.935Z,54.11
2018-08-30T22:47:07.918Z,54.09
2018-08-30T22:49:33.925Z,54.08
2018-08-30T22:51:59.901Z,54.04
2018-08-30T22:54:25.891Z,54.03
2018-08-30T22:56:51.876Z,54.00
2018-08-30T22:59:17.861Z,53.99
2018-08-30T23:01:43.838Z,53.95
2018-08-30T23:04:09.822Z,53.94
2018-08-30T23:06:35.868Z,53.90
2018-08-30T23:09:01.785Z,53.87
2018-08-30T23:11:27.776Z,53.85
2018-08-30T23:13:53.761Z,53.82
2018-08-30T23:16:19.756Z,53.81
2018-08-30T23:18:45.740Z,53.79
2018-08-30T23:21:11.720Z,53.77
2018-08-30T23:23:37.694Z,53.75
2018-08-30T23:26:03.678Z,53.72
2018-08-30T23:28:29.659Z,53.70
2018-08-30T23:30:55.640Z,53.66
2018-08-30T23:33:21.622Z,53.67
2018-08-30T23:35:47.598Z,53.62
2018-08-30T23:38:13.582Z,53.60
2018-08-30T23:40:39.558Z,53.60
2018-08-30T23:43:05.550Z,53.57
2018-08-30T23:45:31.532Z,53.54
2018-08-30T23:47:57.543Z,53.53
2018-08-30T23:50:23.524Z,53.52
2018-08-30T23:52:49.512Z,53.49
2018-08-30T23:55:15.486Z,53.45
2018-08-30T23:57:41.475Z,53.47
